createdAt,value
2022-12-17T00:03:56.750Z,1007.44
2022-12-17T00:08:55.398Z,1007.58
2022-12-17T00:13:55.314Z,1007.52
2022-12-17T00:18:55.283Z,1007.52
2022-12-17T00:23:55.253Z,1007.50
2022-12-17T00:28:55.133Z,1007.51
2022-12-17T00:33:55.089Z,1007.52
2022-12-17T00:38:55.002Z,1007.61
2022-12-17T00:43:56.356Z,1007.69
2022-12-17T00:48:54.919Z,1007.77
2022-12-17T00:53:54.869Z,1007.83
2022-12-17T00:58:54.761Z,1007.87
2022-12-17T01:03:54.732Z,1007.89
2022-12-17T01:08:54.636Z,1007.99
2022-12-17T01:13:54.561Z,1007.98
2022-12-17T01:18:54.503Z,1008.00
2022-12-17T01:23:54.494Z,1008.06
2022-12-17T01:28:54.403Z,1008.16
2022-12-17T01:33:54.302Z,1008.22
2022-12-17T01:38:54.275Z,1008.31
2022-12-17T01:43:54.261Z,1008.37
2022-12-17T01:48:54.131Z,1008.20
2022-12-17T01:53:54.150Z,1008.35
2022-12-17T01:58:53.988Z,1008.36
2022-12-17T02:03:53.984Z,1008.32
2022-12-17T02:08:53.912Z,1008.38
2022-12-17T02:13:53.796Z,1008.39
2022-12-17T02:18:53.759Z,1008.39
2022-12-17T02:23:53.874Z,1008.52
2022-12-17T02:28:53.666Z,1008.52
2022-12-17T02:33:53.573Z,1008.52
2022-12-17T02:38:53.462Z,1008.54
2022-12-17T02:43:53.467Z,1008.55
2022-12-17T02:48:53.379Z,1008.57
2022-12-17T02:53:53.302Z,1008.61
2022-12-17T02:58:53.210Z,1008.62
2022-12-17T03:03:53.182Z,1008.65
2022-12-17T03:08:53.161Z,1008.68
2022-12-17T03:13:53.018Z,1008.69
2022-12-17T03:18:52.996Z,1008.69
2022-12-17T03:23:52.907Z,1008.83
2022-12-17T03:28:52.837Z,1008.85
2022-12-17T03:33:52.784Z,1008.86
2022-12-17T03:38:52.704Z,1008.93
2022-12-17T03:43:52.713Z,1008.86
2022-12-17T03:48:52.591Z,1008.89
2022-12-17T03:53:52.983Z,1008.89
2022-12-17T03:58:52.754Z,1008.94
2022-12-17T04:03:52.381Z,1008.96
2022-12-17T04:08:52.303Z,1009.05
2022-12-17T04:13:52.305Z,1009.16
2022-12-17T04:18:52.233Z,1009.20
2022-12-17T04:23:52.151Z,1009.24
2022-12-17T04:28:52.059Z,1009.37
2022-12-17T04:33:52.039Z,1009.41
2022-12-17T04:38:51.927Z,1009.40
2022-12-17T04:43:51.894Z,1009.48
2022-12-17T04:48:51.836Z,1009.51
2022-12-17T04:53:51.752Z,1009.48
2022-12-17T04:58:51.701Z,1009.48
2022-12-17T05:03:51.696Z,1009.53
2022-12-17T05:08:51.560Z,1009.58
2022-12-17T05:13:51.506Z,1009.70
2022-12-17T05:18:51.474Z,1009.72
2022-12-17T05:23:51.412Z,1009.77
2022-12-17T05:28:51.292Z,1009.90
2022-12-17T05:33:51.359Z,1010.02
2022-12-17T05:38:51.232Z,1010.02
2022-12-17T05:43:51.111Z,1010.06
2022-12-17T05:48:51.070Z,1010.17
2022-12-17T05:53:51.031Z,1010.22
2022-12-17T05:58:50.958Z,1010.28
2022-12-17T06:03:51.002Z,1010.26
2022-12-17T06:08:50.860Z,1010.28
2022-12-17T06:13:50.750Z,1010.33
2022-12-17T06:18:50.717Z,1010.36
2022-12-17T06:23:50.633Z,1010.35
2022-12-17T06:28:50.576Z,1010.40
2022-12-17T06:33:50.474Z,1010.51
2022-12-17T06:38:50.430Z,1010.45
2022-12-17T06:43:50.404Z,1010.57
2022-12-17T06:48:50.328Z,1010.75
2022-12-17T06:53:50.249Z,1010.85
2022-12-17T06:58:50.192Z,1010.95
2022-12-17T07:03:50.154Z,1010.99
2022-12-17T07:08:50.126Z,1010.95
2022-12-17T07:13:50.067Z,1011.05
2022-12-17T07:18:49.900Z,1011.26
2022-12-17T07:23:49.888Z,1011.22
2022-12-17T07:28:49.796Z,1011.23
2022-12-17T07:33:49.715Z,1011.22
2022-12-17T07:38:49.670Z,1011.33
2022-12-17T07:43:52.941Z,1011.34
2022-12-17T07:48:49.538Z,1011.25
2022-12-17T07:53:49.478Z,1011.41
2022-12-17T07:58:49.388Z,1011.54
2022-12-17T08:03:49.440Z,1011.52
2022-12-17T08:08:49.324Z,1011.58
2022-12-17T08:13:49.233Z,1011.76
2022-12-17T08:18:49.172Z,1011.80
2022-12-17T08:23:49.109Z,1011.88
2022-12-17T08:28:50.828Z,1012.02
2022-12-17T08:33:48.919Z,1012.05
2022-12-17T08:38:48.841Z,1012.04
2022-12-17T08:43:49.135Z,1012.08
2022-12-17T08:48:48.799Z,1012.10
2022-12-17T08:53:48.734Z,1012.13
2022-12-17T08:58:48.602Z,1012.24
2022-12-17T09:03:48.684Z,1012.28
2022-12-17T09:08:48.532Z,1012.35
2022-12-17T09:13:48.449Z,1012.42
2022-12-17T09:18:48.393Z,1012.31
2022-12-17T09:23:48.334Z,1012.45
2022-12-17T09:28:48.295Z,1012.41
2022-12-17T09:33:48.244Z,1012.37
2022-12-17T09:38:48.085Z,1012.45
2022-12-17T09:43:48.057Z,1012.48
2022-12-17T09:48:48.017Z,1012.60
2022-12-17T09:53:47.891Z,1012.55
2022-12-17T09:58:47.923Z,1012.63
2022-12-17T10:03:47.806Z,1012.44
2022-12-17T10:08:47.696Z,1012.73
2022-12-17T10:13:47.696Z,1012.67
2022-12-17T10:18:47.569Z,1012.75
2022-12-17T10:23:47.779Z,1012.76
2022-12-17T10:28:47.450Z,1012.85
2022-12-17T10:33:47.486Z,1012.88
2022-12-17T10:38:47.312Z,1012.89
2022-12-17T10:43:47.366Z,1012.98
2022-12-17T10:48:47.675Z,1012.98
2022-12-17T10:53:47.123Z,1012.99
2022-12-17T10:58:47.795Z,1012.99
2022-12-17T11:03:47.067Z,1012.98
2022-12-17T11:08:46.969Z,1013.06
2022-12-17T11:13:47.036Z,1013.03
2022-12-17T11:18:46.789Z,1013.03
2022-12-17T11:23:46.851Z,1013.10
2022-12-17T11:28:46.648Z,1013.13
2022-12-17T11:33:46.613Z,1013.20
2022-12-17T11:38:46.546Z,1013.11
2022-12-17T11:43:46.575Z,1013.16
2022-12-17T11:48:48.062Z,1013.05
2022-12-17T11:53:46.402Z,1013.09
2022-12-17T11:58:46.274Z,1013.25
2022-12-17T12:03:46.349Z,1013.30
2022-12-17T12:08:46.948Z,1013.25
2022-12-17T12:13:46.184Z,1013.24
2022-12-17T12:18:46.003Z,1013.32
2022-12-17T12:23:45.981Z,1013.32
2022-12-17T12:28:46.054Z,1013.35
2022-12-17T12:33:45.860Z,1013.35
2022-12-17T12:38:47.297Z,1013.37
2022-12-17T12:43:45.689Z,1013.47
2022-12-17T12:48:45.765Z,1013.61
2022-12-17T12:53:45.601Z,1013.52
2022-12-17T12:58:45.583Z,1013.57
2022-12-17T13:03:45.635Z,1013.59
2022-12-17T13:08:45.387Z,1013.63
2022-12-17T13:13:45.342Z,1013.75
2022-12-17T13:18:45.409Z,1013.70
2022-12-17T13:23:45.243Z,1013.72
2022-12-17T13:28:45.175Z,1013.78
2022-12-17T13:33:45.124Z,1013.87
2022-12-17T13:38:45.039Z,1013.88
2022-12-17T13:43:44.939Z,1014.05
2022-12-17T13:48:44.920Z,1014.00
2022-12-17T13:53:44.794Z,1014.10
2022-12-17T13:58:47.296Z,1014.18
2022-12-17T14:08:45.618Z,1014.30
2022-12-17T14:13:44.562Z,1014.40
2022-12-17T14:18:44.507Z,1014.50
2022-12-17T14:23:44.439Z,1014.60
2022-12-17T14:28:48.695Z,1014.66
2022-12-17T14:33:45.310Z,1014.71
2022-12-17T14:38:48.463Z,1014.76
2022-12-17T14:43:44.136Z,1014.81
2022-12-17T14:48:44.181Z,1014.84
2022-12-17T14:53:44.072Z,1014.96
2022-12-17T14:58:43.934Z,1014.83
2022-12-17T15:03:44.125Z,1015.05
2022-12-17T15:08:43.825Z,1015.06
2022-12-17T15:13:44.023Z,1015.14
2022-12-17T15:18:44.084Z,1015.13
2022-12-17T15:23:43.671Z,1015.14
2022-12-17T15:28:43.687Z,1015.11
2022-12-17T15:33:43.517Z,1015.24
2022-12-17T15:38:43.421Z,1015.35
2022-12-17T15:43:43.645Z,1015.30
2022-12-17T15:48:49.589Z,1015.27
2022-12-17T15:53:44.267Z,1015.22
2022-12-17T15:58:43.258Z,1015.38
2022-12-17T16:03:43.232Z,1015.40
2022-12-17T16:08:43.060Z,1015.35
2022-12-17T16:13:43.276Z,1015.49
2022-12-17T16:18:42.933Z,1015.52
2022-12-17T16:23:42.920Z,1015.56
2022-12-17T16:28:42.768Z,1015.61
2022-12-17T16:33:42.780Z,1015.65
2022-12-17T16:38:42.710Z,1015.62
2022-12-17T16:43:42.589Z,1015.69
2022-12-17T16:48:42.620Z,1015.81
2022-12-17T16:53:42.563Z,1015.88
2022-12-17T16:58:42.423Z,1015.90
2022-12-17T17:03:42.428Z,1015.88
2022-12-17T17:08:42.273Z,1016.02
2022-12-17T17:13:42.225Z,1016.12
2022-12-17T17:18:42.512Z,1016.08
2022-12-17T17:23:42.045Z,1016.12
2022-12-17T17:28:42.013Z,1016.17
2022-12-17T17:33:41.971Z,1016.27
2022-12-17T17:38:41.935Z,1016.30
2022-12-17T17:43:41.824Z,1016.25
2022-12-17T17:48:41.739Z,1016.28
2022-12-17T17:53:42.767Z,1016.33
2022-12-17T17:58:41.648Z,1016.38
2022-12-17T18:03:42.413Z,1016.31
2022-12-17T18:08:42.207Z,1016.36
2022-12-17T18:13:41.472Z,1016.23
2022-12-17T18:18:41.447Z,1016.39
2022-12-17T18:23:41.329Z,1016.56
2022-12-17T18:28:41.292Z,1016.67
2022-12-17T18:33:41.331Z,1016.67
2022-12-17T18:38:41.115Z,1016.75
2022-12-17T18:43:41.048Z,1016.76
2022-12-17T18:48:41.037Z,1016.80
2022-12-17T18:53:40.926Z,1016.87
2022-12-17T18:58:40.857Z,1016.89
2022-12-17T19:03:41.921Z,1016.98
2022-12-17T19:08:41.090Z,1016.95
2022-12-17T19:13:40.838Z,1017.11
2022-12-17T19:18:40.795Z,1017.04
2022-12-17T19:23:40.617Z,1017.06
2022-12-17T19:28:40.613Z,1017.14
2022-12-17T19:33:40.444Z,1017.19
2022-12-17T19:38:40.746Z,1017.38
2022-12-17T19:43:40.291Z,1017.27
2022-12-17T19:48:45.012Z,1017.32
2022-12-17T19:53:41.194Z,1017.36
2022-12-17T19:58:40.374Z,1017.32
2022-12-17T20:03:40.136Z,1017.39
2022-12-17T20:08:40.556Z,1017.39
2022-12-17T20:13:40.022Z,1017.50
2022-12-17T20:18:40.382Z,1017.46
2022-12-17T20:23:39.864Z,1017.46
2022-12-17T20:28:40.389Z,1017.52
2022-12-17T20:33:39.658Z,1017.75
2022-12-17T20:38:39.959Z,1017.77
2022-12-17T20:43:39.509Z,1017.72
2022-12-17T20:48:39.999Z,1017.86
2022-12-17T20:53:39.557Z,1017.87
2022-12-17T20:58:39.711Z,1017.97
2022-12-17T21:03:39.307Z,1017.95
2022-12-17T21:08:43.353Z,1018.02
2022-12-17T21:13:40.217Z,1017.99
2022-12-17T21:18:39.525Z,1018.06
2022-12-17T21:23:39.030Z,1018.14
2022-12-17T21:28:39.554Z,1018.14
2022-12-17T21:33:38.901Z,1018.26
2022-12-17T21:38:39.264Z,1018.26
2022-12-17T21:43:38.815Z,1018.35
2022-12-17T21:48:41.906Z,1018.37
2022-12-17T21:53:38.906Z,1018.30
2022-12-17T21:58:39.060Z,1018.45
2022-12-17T22:03:38.637Z,1018.44
2022-12-17T22:08:38.870Z,1018.46
2022-12-17T22:13:38.446Z,1018.43
2022-12-17T22:18:38.764Z,1018.50
2022-12-17T22:23:38.300Z,1018.54
2022-12-17T22:28:38.505Z,1018.56
2022-12-17T22:33:57.671Z,1018.71
2022-12-17T22:44:34.071Z,1018.70
2022-12-17T22:44:49.262Z,1018.71
2022-12-17T22:48:39.021Z,1018.79
2022-12-17T22:53:38.305Z,1018.78
2022-12-17T22:58:37.843Z,1018.80
2022-12-17T23:03:38.378Z,1018.86
2022-12-17T23:08:37.705Z,1018.98
2022-12-17T23:13:38.215Z,1018.88
2022-12-17T23:18:37.609Z,1018.91
2022-12-17T23:23:37.956Z,1018.97
2022-12-17T23:28:37.557Z,1019.02
2022-12-17T23:33:37.750Z,1019.14
2022-12-17T23:38:37.573Z,1019.15
2022-12-17T23:43:37.656Z,1019.25
2022-12-17T23:48:39.560Z,1019.15
2022-12-17T23:53:38.612Z,1019.08
2022-12-17T23:58:37.104Z,1019.06
